Time;durP1;ratioP1;P1;durP2;ratioP2;P2;SDS_P1;SDS_P2;PMS_P1;PMS_P2;Temp;Humidity;BMP_temperature;BMP_pressure;BME280_temperature;BME280_humidity;BME280_pressure;Samples;Min_cycle;Max_cycle;Signal;HPM_P1;HPM_P2
2022/04/09 00:00:21;;;;;;;10.95;3.08;;;;;;;16.31;57.80;96072.56;5133866;27;20027;-31
2022/04/09 00:02:47;;;;;;;13.02;3.00;;;;;;;16.33;57.65;96072.06;5133616;27;20116;-31
2022/04/09 00:05:13;;;;;;;13.35;3.22;;;;;;;16.29;57.72;96066.81;5133801;27;20539;-32
2022/04/09 00:07:39;;;;;;;10.07;2.92;;;;;;;16.30;57.79;96057.38;5133990;27;20130;-31
2022/04/09 00:10:06;;;;;;;13.63;3.15;;;;;;;16.32;57.55;96056.91;5133668;27;20106;-31
2022/04/09 00:12:32;;;;;;;10.88;3.17;;;;;;;16.26;57.76;96048.59;5133677;27;20019;-31
2022/04/09 00:14:58;;;;;;;11.32;2.90;;;;;;;16.30;57.60;96062.09;5119415;27;20019;-31
2022/04/09 00:17:23;;;;;;;6.30;2.50;;;;;;;16.32;57.56;96040.50;5137408;27;20459;-31
2022/04/09 00:19:49;;;;;;;10.45;3.03;;;;;;;16.24;57.90;96040.09;5137148;27;20027;-32
2022/04/09 00:22:15;;;;;;;10.80;3.00;;;;;;;16.33;57.37;96025.56;5137338;27;20017;-31
2022/04/09 00:24:40;;;;;;;10.68;2.70;;;;;;;16.24;57.78;96033.88;5137183;27;20037;-31
2022/04/09 00:27:06;;;;;;;6.97;2.40;;;;;;;16.26;57.58;96020.47;5137182;27;20108;-31
2022/04/09 00:29:31;;;;;;;10.20;2.63;;;;;;;16.28;57.76;96018.03;5136989;27;20023;-31
2022/04/09 00:31:57;;;;;;;10.30;2.58;;;;;;;16.29;57.62;96001.13;5136989;27;20098;-31
2022/04/09 00:34:29;;;;;;;8.50;2.60;;;;;;;16.27;57.54;95989.16;5137159;27;20026;-31
2022/04/09 00:37:02;;;;;;;7.23;2.20;;;;;;;16.26;57.76;95987.63;5136871;27;20102;-31
2022/04/09 00:39:33;;;;;;;11.05;2.70;;;;;;;16.30;57.58;95996.41;5136826;27;20047;-31
2022/04/09 00:41:59;;;;;;;13.05;2.60;;;;;;;16.22;57.73;96004.25;5136860;27;20019;-31
2022/04/09 00:44:24;;;;;;;11.27;2.80;;;;;;;16.17;58.01;95988.50;5137051;27;20031;-31
2022/04/09 00:46:50;;;;;;;11.25;2.83;;;;;;;16.16;58.16;95984.25;5136888;27;20019;-31
2022/04/09 00:49:17;;;;;;;12.52;2.33;;;;;;;16.04;58.48;95985.31;5136648;27;20031;-31
2022/04/09 00:51:46;;;;;;;7.53;2.30;;;;;;;16.13;58.30;95983.22;5136595;27;20099;-31
2022/04/09 00:54:13;;;;;;;8.18;2.38;;;;;;;16.05;58.38;95967.69;5136391;27;20435;-32
2022/04/09 00:56:40;;;;;;;8.05;2.50;;;;;;;16.22;57.64;95970.66;5136561;27;20050;-31
2022/04/09 00:59:10;;;;;;;12.48;2.33;;;;;;;16.24;57.60;95971.69;5136566;27;20030;-31
2022/04/09 01:01:37;;;;;;;10.18;3.10;;;;;;;16.19;57.94;95977.84;5136353;27;20558;-31
2022/04/09 01:04:11;;;;;;;10.02;2.95;;;;;;;16.13;58.09;95975.00;5136607;27;20051;-31
2022/04/09 01:06:38;;;;;;;9.73;2.42;;;;;;;16.06;58.15;95955.50;5136485;27;20030;-31
2022/04/09 01:09:05;;;;;;;12.52;2.95;;;;;;;16.05;58.29;95962.97;5136465;27;20118;-30
2022/04/09 01:11:32;;;;;;;14.75;3.38;;;;;;;15.99;58.49;95964.84;5136223;27;20011;-31
2022/04/09 01:13:58;;;;;;;8.43;2.58;;;;;;;16.11;57.94;95957.56;5136235;27;20111;-31
2022/04/09 01:16:28;;;;;;;12.30;3.15;;;;;;;16.03;58.45;95953.72;5136133;27;20102;-31
2022/04/09 01:19:00;;;;;;;10.85;2.88;;;;;;;16.04;58.41;95950.50;5136149;27;20019;-31
2022/04/09 01:21:27;;;;;;;9.35;2.58;;;;;;;16.00;58.37;95941.72;5135962;27;20027;-31
2022/04/09 01:23:54;;;;;;;14.25;2.78;;;;;;;16.04;58.30;95934.09;5136254;27;20149;-31
2022/04/09 01:26:20;;;;;;;10.50;2.58;;;;;;;16.02;58.43;95931.06;5135831;27;20106;-31
2022/04/09 01:28:47;;;;;;;11.43;3.17;;;;;;;15.95;58.71;95920.50;5135931;27;20471;-31
2022/04/09 01:31:13;;;;;;;9.95;2.60;;;;;;;15.95;58.67;95939.66;5136035;27;20026;-31
2022/04/09 01:33:38;;;;;;;15.65;3.30;;;;;;;15.88;58.93;95909.97;5135727;27;20035;-31
2022/04/09 01:36:04;;;;;;;9.30;2.80;;;;;;;15.94;58.66;95907.34;5135696;27;20031;-31
2022/04/09 01:38:30;;;;;;;11.55;2.80;;;;;;;15.93;58.75;95901.09;5135800;27;20371;-31
2022/04/09 01:40:55;;;;;;;9.82;2.85;;;;;;;15.92;58.65;95905.06;5117089;27;20428;-31
2022/04/09 01:43:21;;;;;;;9.45;2.50;;;;;;;15.94;58.53;95904.59;5135719;27;20018;-31
2022/04/09 01:45:47;;;;;;;8.68;2.70;;;;;;;15.96;58.29;95893.91;5135527;27;20464;-31
2022/04/09 01:48:12;;;;;;;9.85;2.38;;;;;;;15.88;58.63;95890.81;5135602;27;20051;-31
2022/04/09 01:50:38;;;;;;;10.50;2.72;;;;;;;15.97;58.28;95896.19;5135805;27;20015;-31
2022/04/09 01:53:03;;;;;;;11.45;3.08;;;;;;;16.00;58.16;95886.28;5135415;27;20022;-31
2022/04/09 01:55:29;;;;;;;11.68;2.90;;;;;;;15.94;58.18;95890.94;5135417;27;20367;-31
2022/04/09 01:57:54;;;;;;;12.88;3.13;;;;;;;16.00;57.92;95881.56;5135284;27;20463;-31
2022/04/09 02:00:20;;;;;;;14.00;2.33;;;;;;;15.99;57.92;95882.03;5135523;27;20367;-31
2022/04/09 02:02:46;;;;;;;12.70;2.95;;;;;;;15.96;57.84;95881.00;5134857;27;20042;-31
2022/04/09 02:05:14;;;;;;;13.10;2.50;;;;;;;16.00;57.84;95878.81;5135363;27;20030;-31
2022/04/09 02:07:41;;;;;;;11.05;2.60;;;;;;;15.92;58.05;95887.91;5135130;27;20030;-32
2022/04/09 02:10:08;;;;;;;8.70;2.40;;;;;;;15.94;58.11;95880.00;5135081;27;20027;-31
2022/04/09 02:12:34;;;;;;;12.15;2.80;;;;;;;16.05;57.46;95891.09;5135262;27;20030;-31
2022/04/09 02:15:05;;;;;;;9.80;2.15;;;;;;;15.70;58.83;95894.50;5135167;27;20031;-31
2022/04/09 02:17:31;;;;;;;8.52;2.65;;;;;;;15.90;58.07;95896.59;5134881;27;20073;-31
2022/04/09 02:19:57;;;;;;;13.27;2.67;;;;;;;15.90;58.28;95884.88;5135088;27;20027;-31
2022/04/09 02:22:23;;;;;;;7.53;2.40;;;;;;;15.88;58.19;95899.03;5134828;27;20023;-31
2022/04/09 02:24:52;;;;;;;12.32;2.95;;;;;;;16.00;57.56;95886.28;5134863;27;20038;-31
2022/04/09 02:27:17;;;;;;;8.80;2.40;;;;;;;15.94;57.96;95878.00;5135138;27;20470;-31
2022/04/09 02:29:43;;;;;;;9.77;2.72;;;;;;;15.96;57.85;95874.78;5134733;27;20038;-31
2022/04/09 02:32:08;;;;;;;9.90;2.72;;;;;;;15.95;57.86;95868.56;5134769;27;20022;-31
2022/04/09 02:34:33;;;;;;;9.30;2.28;;;;;;;15.94;58.28;95869.06;5134528;27;20019;-31
2022/04/09 02:36:59;;;;;;;13.32;2.17;;;;;;;15.78;58.70;95871.06;5134270;27;20463;-31
2022/04/09 02:39:24;;;;;;;11.80;3.20;;;;;;;15.89;58.34;95851.31;5134620;27;20379;-31
2022/04/09 02:41:50;;;;;;;11.27;2.95;;;;;;;15.94;58.05;95847.94;5134531;27;20038;-31
2022/04/09 02:44:17;;;;;;;12.25;2.67;;;;;;;15.98;57.80;95853.94;5134663;27;20038;-31
2022/04/09 02:46:43;;;;;;;9.02;2.35;;;;;;;15.91;57.91;95837.94;5134420;27;20367;-31
2022/04/09 02:49:09;;;;;;;9.27;2.20;;;;;;;15.91;58.38;95857.06;5134466;27;20026;-31
2022/04/09 02:51:34;;;;;;;9.48;2.22;;;;;;;15.93;58.22;95848.41;5134383;27;20019;-31
2022/04/09 02:54:00;;;;;;;12.20;2.85;;;;;;;15.94;58.24;95850.66;5134363;27;20080;-31
2022/04/09 02:56:25;;;;;;;13.60;2.67;;;;;;;15.93;58.13;95854.63;5134390;27;20031;-31
2022/04/09 02:58:51;;;;;;;14.85;3.22;;;;;;;15.74;59.08;95856.06;5134259;27;20058;-31
2022/04/09 03:01:16;;;;;;;12.85;2.65;;;;;;;15.67;59.36;95846.28;5134238;27;20105;-31
2022/04/09 03:03:42;;;;;;;11.00;2.72;;;;;;;15.80;58.83;95854.94;5134156;27;20054;-31
2022/04/09 03:06:07;;;;;;;10.35;2.30;;;;;;;15.78;58.80;95842.94;5134243;27;20023;-31
2022/04/09 03:08:33;;;;;;;11.13;2.95;;;;;;;15.75;58.97;95836.44;5134475;27;20030;-31
2022/04/09 03:10:58;;;;;;;9.65;2.22;;;;;;;15.74;58.96;95840.41;5134178;27;20027;-31
2022/04/09 03:13:24;;;;;;;8.25;2.38;;;;;;;15.76;58.86;95848.13;5134307;27;20027;-31
2022/04/09 03:15:49;;;;;;;8.38;2.33;;;;;;;15.78;58.68;95845.69;5134243;27;20015;-31
2022/04/09 03:18:15;;;;;;;10.35;2.35;;;;;;;15.89;58.35;95840.38;5115677;28;20027;-30
2022/04/09 03:20:41;;;;;;;9.23;2.53;;;;;;;15.83;58.61;95853.19;5134118;27;20463;-31
2022/04/09 03:23:07;;;;;;;14.43;3.65;;;;;;;15.84;58.34;95841.03;5133926;27;20045;-31
2022/04/09 03:25:32;;;;;;;6.63;2.33;;;;;;;15.90;58.25;95849.34;5134091;27;20514;-31
2022/04/09 03:27:58;;;;;;;12.13;2.67;;;;;;;15.82;58.51;95851.72;5134073;27;20031;-31
2022/04/09 03:30:23;;;;;;;8.98;2.75;;;;;;;15.80;58.57;95844.00;5134220;27;20015;-31
2022/04/09 03:32:49;;;;;;;10.68;2.70;;;;;;;15.76;58.54;95839.94;5133815;27;20023;-32
2022/04/09 03:35:15;;;;;;;12.70;2.55;;;;;;;15.94;58.13;95836.97;5134066;27;20031;-31
2022/04/09 03:37:41;;;;;;;7.85;2.10;;;;;;;15.80;58.39;95835.78;5133958;27;20019;-31
2022/04/09 03:40:08;;;;;;;7.30;2.67;;;;;;;15.82;58.25;95830.56;5133989;27;20053;-30
2022/04/09 03:42:33;;;;;;;6.45;1.92;;;;;;;15.78;58.47;95835.50;5133902;27;20494;-31
2022/04/09 03:45:00;;;;;;;8.57;2.38;;;;;;;15.78;58.29;95832.03;5133910;27;20027;-31
2022/04/09 03:47:25;;;;;;;11.05;3.22;;;;;;;15.87;58.35;95842.84;5133794;27;20019;-31
2022/04/09 03:49:51;;;;;;;10.57;2.40;;;;;;;15.76;58.75;95826.25;5137762;27;20490;-31
2022/04/09 03:52:16;;;;;;;10.45;2.28;;;;;;;15.71;58.80;95846.81;5137799;27;20098;-31
2022/04/09 03:54:42;;;;;;;7.18;2.70;;;;;;;15.66;59.16;95833.84;5137905;27;20355;-31
2022/04/09 03:57:09;;;;;;;10.40;3.00;;;;;;;15.70;59.03;95839.13;5138014;27;20023;-31
2022/04/09 03:59:35;;;;;;;9.40;2.55;;;;;;;15.74;59.15;95820.50;5137581;27;20080;-31
2022/04/09 04:02:00;;;;;;;8.77;2.28;;;;;;;15.32;60.69;95813.41;5137531;27;20023;-31
2022/04/09 04:04:26;;;;;;;11.65;2.80;;;;;;;15.43;60.18;95810.84;5137510;27;20046;-31
2022/04/09 04:06:51;;;;;;;13.10;3.60;;;;;;;15.60;59.77;95808.38;5137715;27;20030;-31
2022/04/09 04:09:17;;;;;;;11.90;3.00;;;;;;;15.50;60.09;95801.50;5137505;27;20019;-32
2022/04/09 04:11:43;;;;;;;11.32;3.08;;;;;;;15.65;59.57;95809.69;5137449;27;20042;-31
2022/04/09 04:14:10;;;;;;;11.23;2.90;;;;;;;15.63;59.79;95790.28;5137552;27;20044;-31
2022/04/09 04:16:36;;;;;;;11.68;2.53;;;;;;;15.62;59.73;95789.53;5137270;27;20026;-31
2022/04/09 04:19:01;;;;;;;12.35;3.30;;;;;;;15.76;58.81;95777.81;5137442;27;20097;-31
2022/04/09 04:21:27;;;;;;;10.75;3.20;;;;;;;15.86;58.58;95774.94;5137292;27;20098;-31
2022/04/09 04:23:53;;;;;;;7.97;2.58;;;;;;;15.57;59.63;95778.53;5137246;27;20596;-31
2022/04/09 04:26:19;;;;;;;9.70;2.83;;;;;;;15.65;59.18;95788.59;5137175;27;20023;-31
2022/04/09 04:28:48;;;;;;;8.95;2.30;;;;;;;15.68;59.26;95800.56;5137077;27;20023;-31
2022/04/09 04:31:16;;;;;;;11.60;2.92;;;;;;;15.69;59.14;95804.81;5136939;27;20382;-31
2022/04/09 04:33:41;;;;;;;12.52;3.05;;;;;;;15.76;58.86;95805.16;5136919;27;20023;-32
2022/04/09 04:36:07;;;;;;;8.75;2.50;;;;;;;15.86;58.32;95813.97;5136829;27;20459;-31
2022/04/09 04:38:32;;;;;;;8.48;2.35;;;;;;;15.70;58.96;95822.72;5136916;27;20098;-31
2022/04/09 04:40:59;;;;;;;11.73;2.63;;;;;;;15.73;58.89;95808.06;5136794;27;20019;-31
2022/04/09 04:43:24;;;;;;;7.95;2.28;;;;;;;15.70;58.84;95798.84;5136537;27;20047;-31
2022/04/09 04:45:50;;;;;;;10.48;2.33;;;;;;;15.72;58.73;95798.38;5136791;27;20547;-31
2022/04/09 04:48:15;;;;;;;9.02;2.33;;;;;;;15.72;58.86;95822.97;5136672;27;20026;-31
2022/04/09 04:50:41;;;;;;;9.57;2.83;;;;;;;15.55;59.38;95792.66;5136763;27;20019;-31
2022/04/09 04:53:07;;;;;;;11.80;2.92;;;;;;;15.63;58.94;95801.22;5136592;27;20079;-31
2022/04/09 04:55:35;;;;;;;10.40;2.30;;;;;;;15.52;59.24;95793.56;5136665;27;20019;-31
2022/04/09 04:58:00;;;;;;;11.60;3.40;;;;;;;15.63;58.99;95801.97;5136531;27;20114;-31
2022/04/09 05:00:26;;;;;;;9.88;2.30;;;;;;;15.61;59.00;95788.03;5136035;27;20093;-31
2022/04/09 05:02:55;;;;;;;12.48;2.60;;;;;;;15.66;58.83;95783.88;5136047;27;20463;-31
2022/04/09 05:05:21;;;;;;;8.13;2.30;;;;;;;15.78;58.36;95793.75;5136445;27;20426;-31
2022/04/09 05:07:49;;;;;;;8.57;2.55;;;;;;;15.67;58.63;95793.59;5117859;27;20102;-31
2022/04/09 05:10:16;;;;;;;11.10;2.25;;;;;;;15.63;59.29;95790.28;5136350;27;20018;-32
2022/04/09 05:12:42;;;;;;;9.82;2.33;;;;;;;15.60;59.24;95797.44;5136141;27;20019;-32
2022/04/09 05:15:10;;;;;;;7.72;2.08;;;;;;;15.70;58.84;95790.63;5136457;27;20031;-31
2022/04/09 05:17:36;;;;;;;6.03;1.90;;;;;;;15.63;58.85;95793.78;5136121;27;20395;-31
2022/04/09 05:20:06;;;;;;;9.25;2.42;;;;;;;15.68;58.84;95793.13;5117739;27;20467;-31
2022/04/09 05:22:32;;;;;;;8.82;2.08;;;;;;;15.34;60.30;95786.34;5136266;27;20027;-31
2022/04/09 05:24:58;;;;;;;6.00;2.20;;;;;;;15.44;60.13;95798.69;5135969;27;20023;-32
2022/04/09 05:27:24;;;;;;;7.55;2.47;;;;;;;15.59;59.63;95785.00;5135967;27;20046;-31
2022/04/09 05:29:50;;;;;;;17.20;3.53;;;;;;;15.45;59.86;95802.91;5135861;27;20042;-31
2022/04/09 05:32:17;;;;;;;12.20;2.35;;;;;;;15.59;59.64;95789.72;5135792;27;20023;-31
2022/04/09 05:34:43;;;;;;;12.73;2.65;;;;;;;15.38;60.69;95783.41;5135804;27;20379;-31
2022/04/09 05:37:09;;;;;;;12.32;2.75;;;;;;;15.44;60.53;95789.75;5135784;27;20023;-31
2022/04/09 05:39:36;;;;;;;13.45;2.80;;;;;;;14.87;62.75;95781.06;5135242;27;20026;-30
2022/04/09 05:42:01;;;;;;;12.52;3.25;;;;;;;15.09;62.00;95773.25;5136156;27;20105;-31
2022/04/09 05:44:27;;;;;;;11.07;2.50;;;;;;;15.41;60.82;95775.03;5135654;27;20046;-31
2022/04/09 05:46:52;;;;;;;9.82;2.22;;;;;;;15.56;60.04;95787.97;5135564;27;20019;-31
2022/04/09 05:49:18;;;;;;;13.55;3.40;;;;;;;15.48;60.44;95795.00;5133971;27;20037;-31
2022/04/09 05:51:45;;;;;;;11.70;2.55;;;;;;;15.22;61.74;95795.56;5121923;27;20531;-31
2022/04/09 05:54:10;;;;;;;9.32;2.25;;;;;;;15.40;61.01;95792.66;5133481;27;20022;-31
2022/04/09 05:56:36;;;;;;;14.10;2.50;;;;;;;15.30;61.53;95776.84;5120544;27;20506;-31
2022/04/09 05:59:02;;;;;;;15.00;3.42;;;;;;;15.46;60.72;95781.78;5112891;28;20084;-31
2022/04/09 06:01:28;;;;;;;7.35;2.10;;;;;;;15.54;60.31;95782.19;5112355;28;20031;-31
2022/04/09 06:03:55;;;;;;;8.23;2.00;;;;;;;15.59;59.98;95789.72;5112618;28;20039;-31
2022/04/09 06:06:21;;;;;;;11.43;2.30;;;;;;;15.50;60.39;95804.22;5112760;28;20027;-31
2022/04/09 06:08:48;;;;;;;6.68;2.17;;;;;;;15.20;61.50;95811.72;5125139;27;20023;-31
2022/04/09 06:11:14;;;;;;;11.38;2.60;;;;;;;15.13;61.81;95797.66;5132213;27;20027;-31
2022/04/09 06:13:40;;;;;;;14.75;2.58;;;;;;;15.38;60.97;95808.75;5132837;27;20035;-31
2022/04/09 06:16:08;;;;;;;10.70;2.90;;;;;;;15.41;60.73;95802.34;5132863;27;20115;-32
2022/04/09 06:18:37;;;;;;;13.00;2.30;;;;;;;15.51;60.25;95794.81;5133102;27;20068;-31
2022/04/09 06:21:06;;;;;;;11.75;2.13;;;;;;;15.54;60.35;95810.25;5132781;27;20084;-31
2022/04/09 06:23:32;;;;;;;12.98;2.30;;;;;;;15.20;61.67;95787.13;5131900;27;20027;-31
2022/04/09 06:25:58;;;;;;;11.50;2.85;;;;;;;15.37;61.00;95782.66;5132524;27;20019;-31
2022/04/09 06:28:24;;;;;;;10.90;2.30;;;;;;;15.35;61.15;95801.50;5132902;27;20487;-31
2022/04/09 06:30:49;;;;;;;11.80;2.13;;;;;;;15.55;60.22;95792.66;5114298;27;20027;-31
2022/04/09 06:33:15;;;;;;;7.07;1.90;;;;;;;15.15;61.74;95812.34;5132690;27;20023;-31
2022/04/09 06:35:40;;;;;;;10.55;2.90;;;;;;;14.99;62.76;95796.44;5132820;27;20031;-31
2022/04/09 06:38:06;;;;;;;9.68;2.42;;;;;;;15.26;61.80;95798.88;5131764;27;20164;-32
2022/04/09 06:40:31;;;;;;;11.25;2.45;;;;;;;15.53;60.68;95800.56;5130866;27;20030;-31
2022/04/09 06:42:58;;;;;;;11.65;2.28;;;;;;;14.90;63.17;95810.94;5132468;27;20467;-31
2022/04/09 06:45:24;;;;;;;9.30;2.80;;;;;;;15.03;62.71;95803.22;5118930;27;20035;-32
2022/04/09 06:47:51;;;;;;;12.90;2.38;;;;;;;15.39;61.68;95802.06;5103481;28;20293;-31
2022/04/09 06:50:17;;;;;;;7.82;2.17;;;;;;;14.81;64.18;95807.53;5111053;28;20030;-31
2022/04/09 06:52:42;;;;;;;5.15;1.92;;;;;;;15.21;62.40;95799.53;5111349;28;20027;-32
2022/04/09 06:55:09;;;;;;;11.90;2.17;;;;;;;15.36;61.65;95799.53;5111567;28;20035;-31
2022/04/09 06:57:36;;;;;;;8.90;2.28;;;;;;;15.25;62.42;95793.88;5111000;28;20443;-31
2022/04/09 07:00:05;;;;;;;9.45;2.22;;;;;;;15.38;61.77;95799.81;5111675;28;20181;-31
2022/04/09 07:02:31;;;;;;;11.35;3.25;;;;;;;15.13;63.06;95798.41;5110974;28;20437;-31
2022/04/09 07:04:56;;;;;;;12.00;2.00;;;;;;;14.91;63.94;95798.03;5111419;28;20028;-31
2022/04/09 07:07:26;;;;;;;10.15;2.55;;;;;;;15.07;63.25;95800.31;5110516;28;20027;-31
2022/04/09 07:09:55;;;;;;;12.40;2.30;;;;;;;14.93;63.90;95781.94;5111138;28;20035;-31
2022/04/09 07:12:22;;;;;;;11.38;2.83;;;;;;;15.19;62.97;95788.34;5111439;28;20027;-31
2022/04/09 07:14:48;;;;;;;14.32;2.30;;;;;;;15.09;63.13;95792.38;5113953;28;20107;-31
2022/04/09 07:17:20;;;;;;;14.98;2.50;;;;;;;14.64;65.45;95786.13;5093237;28;20027;-31
2022/04/09 07:19:46;;;;;;;13.15;2.70;;;;;;;14.57;65.88;95772.13;5111628;28;20032;-31
2022/04/09 07:22:12;;;;;;;11.73;2.65;;;;;;;14.95;64.16;95779.50;5112928;28;20028;-31
2022/04/09 07:24:38;;;;;;;10.02;2.30;;;;;;;15.34;62.20;95785.59;5115891;28;20035;-31
2022/04/09 07:27:04;;;;;;;7.70;2.42;;;;;;;15.43;61.43;95775.31;5115680;28;20033;-31
2022/04/09 07:29:30;;;;;;;25.40;8.05;;;;;;;15.14;62.59;95780.06;5115638;28;20038;-31
2022/04/09 07:31:55;;;;;;;17.55;4.45;;;;;;;15.50;61.20;95798.00;5115675;28;20024;-31
2022/04/09 07:34:21;;;;;;;18.02;6.00;;;;;;;15.53;61.31;95789.63;5115700;28;20031;-31
2022/04/09 07:36:47;;;;;;;20.98;6.07;;;;;;;15.21;62.06;95783.13;5115505;28;20038;-31
2022/04/09 07:39:13;;;;;;;13.45;5.07;;;;;;;15.12;62.82;95783.25;5113640;28;20027;-31
2022/04/09 07:41:38;;;;;;;16.25;4.85;;;;;;;15.39;61.97;95782.94;5119458;27;20026;-31
2022/04/09 07:44:04;;;;;;;10.75;4.35;;;;;;;15.36;61.86;95786.63;5138138;27;20023;-31
2022/04/09 07:46:30;;;;;;;18.88;5.75;;;;;;;15.20;63.19;95786.38;5137838;27;20054;-31
2022/04/09 07:48:55;;;;;;;11.82;3.88;;;;;;;14.90;64.05;95782.88;5138130;27;20352;-30
2022/04/09 07:51:20;;;;;;;13.40;3.67;;;;;;;14.90;64.16;95774.69;5137827;27;20379;-31
2022/04/09 07:53:46;;;;;;;12.63;3.30;;;;;;;14.93;64.28;95771.78;5137864;27;20108;-32
2022/04/09 07:56:12;;;;;;;10.93;2.90;;;;;;;14.88;64.22;95766.97;5137824;27;20019;-31
2022/04/09 07:58:37;;;;;;;8.75;3.15;;;;;;;14.96;63.96;95778.28;5119300;27;20023;-31
2022/04/09 08:01:03;;;;;;;9.05;3.15;;;;;;;14.87;64.62;95781.81;5137457;27;20392;-31
2022/04/09 08:03:28;;;;;;;15.40;3.13;;;;;;;15.09;63.17;95782.22;5137427;27;20075;-31
2022/04/09 08:05:54;;;;;;;15.45;3.72;;;;;;;15.26;62.73;95768.06;5137769;27;20026;-31
2022/04/09 08:08:19;;;;;;;16.02;3.55;;;;;;;15.00;64.11;95776.84;5137688;27;20042;-31
2022/04/09 08:10:45;;;;;;;12.25;3.15;;;;;;;15.05;63.83;95778.94;5137784;27;20021;-31
2022/04/09 08:13:10;;;;;;;12.25;2.83;;;;;;;14.97;64.06;95774.28;5137412;27;20026;-30
2022/04/09 08:15:57;;;;;;;21.85;3.25;;;;;;;14.92;64.53;95783.16;5136749;27;20042;-33
2022/04/09 08:18:22;;;;;;;16.45;3.00;;;;;;;14.90;64.39;95774.69;5137140;27;20023;-34
2022/04/09 08:20:48;;;;;;;12.60;3.03;;;;;;;14.95;64.05;95777.53;5137352;27;20474;-33
2022/04/09 08:23:22;;;;;;;14.73;3.25;;;;;;;15.00;63.77;95779.56;5137267;27;20041;-31
2022/04/09 08:25:48;;;;;;;20.17;5.15;;;;;;;15.04;63.58;95796.53;5136744;27;20023;-31
2022/04/09 08:28:31;;;;;;;18.42;4.35;;;;;;;15.23;63.03;95780.69;5136106;27;20046;-31
2022/04/09 08:30:57;;;;;;;14.98;3.45;;;;;;;15.23;62.63;95785.41;5137154;27;20419;-31
2022/04/09 08:33:23;;;;;;;12.85;3.22;;;;;;;15.04;63.45;95780.16;5136192;27;20027;-31
2022/04/09 08:35:48;;;;;;;13.52;3.75;;;;;;;15.08;63.44;95766.31;5137064;27;20485;-31
2022/04/09 08:38:15;;;;;;;11.75;3.17;;;;;;;15.14;62.98;95807.34;5136986;27;20106;-31
2022/04/09 08:40:41;;;;;;;13.90;3.08;;;;;;;14.99;62.94;95821.75;5118414;27;20429;-31
2022/04/09 08:43:07;;;;;;;13.80;3.35;;;;;;;14.73;63.78;95816.06;5136893;27;20026;-32
2022/04/09 08:45:36;;;;;;;13.82;3.30;;;;;;;15.10;62.67;95793.88;5136828;27;20031;-31
2022/04/09 08:48:05;;;;;;;10.73;2.88;;;;;;;15.26;61.94;95792.66;5136385;27;20044;-31
2022/04/09 08:50:31;;;;;;;14.02;4.35;;;;;;;14.86;63.50;95795.94;5135602;27;20054;-32
2022/04/09 08:53:02;;;;;;;15.45;4.35;;;;;;;15.00;63.39;95808.84;5136443;27;20370;-31
2022/04/09 08:55:30;;;;;;;13.88;3.58;;;;;;;15.29;62.10;95789.75;5136449;27;20023;-31
2022/04/09 08:57:56;;;;;;;14.75;4.40;;;;;;;14.99;63.16;95812.81;5136178;27;20110;-31
2022/04/09 09:00:22;;;;;;;14.35;3.70;;;;;;;15.09;62.99;95814.22;5134916;27;20046;-31
2022/04/09 09:02:58;;;;;;;16.75;3.50;;;;;;;15.01;63.20;95792.00;5119739;27;20084;-31
2022/04/09 09:05:37;;;;;;;12.13;3.63;;;;;;;14.88;63.74;95812.63;5113996;28;20471;-31
2022/04/09 09:08:04;;;;;;;12.43;3.92;;;;;;;15.13;63.27;95792.19;5113893;28;20027;-32
2022/04/09 09:10:31;;;;;;;13.10;3.17;;;;;;;15.06;63.51;95793.34;5113716;28;20027;-31
2022/04/09 09:12:59;;;;;;;15.65;3.70;;;;;;;15.07;62.94;95792.88;5113329;28;20047;-31
2022/04/09 09:15:25;;;;;;;10.27;2.80;;;;;;;15.29;62.21;95780.81;5113567;28;20102;-31
2022/04/09 09:17:56;;;;;;;18.48;3.65;;;;;;;14.80;64.09;95803.28;5113561;28;20460;-31
2022/04/09 09:20:23;;;;;;;19.10;4.25;;;;;;;15.03;63.41;95795.03;5113756;27;20019;-31
2022/04/09 09:22:49;;;;;;;12.95;4.03;;;;;;;15.12;62.84;95821.47;5113432;28;20127;-31
2022/04/09 09:25:14;;;;;;;14.52;4.32;;;;;;;14.95;63.22;95815.75;5113214;28;20114;-31
2022/04/09 09:27:40;;;;;;;12.45;2.72;;;;;;;15.04;62.86;95790.31;5112052;28;20123;-31
2022/04/09 09:30:09;;;;;;;12.07;3.30;;;;;;;15.05;62.88;95794.56;5113411;28;20031;-31
2022/04/09 09:32:35;;;;;;;11.18;3.25;;;;;;;15.10;63.18;95782.97;5113191;28;20031;-31
2022/04/09 09:35:00;;;;;;;12.30;3.00;;;;;;;14.87;63.79;95789.25;5113246;28;20027;-32
2022/04/09 09:37:28;;;;;;;11.07;2.85;;;;;;;15.14;62.88;95799.16;5112908;28;20038;-31
2022/04/09 09:39:54;;;;;;;15.63;3.75;;;;;;;15.01;63.24;95802.19;5112700;28;20027;-31
2022/04/09 09:42:21;;;;;;;16.23;3.90;;;;;;;14.98;62.95;95803.09;5112882;28;20067;-31
2022/04/09 09:44:47;;;;;;;14.52;3.13;;;;;;;15.01;62.94;95792.00;5112926;28;20557;-30
2022/04/09 09:47:16;;;;;;;12.82;4.07;;;;;;;15.15;62.39;95797.94;5113213;28;20097;-31
2022/04/09 09:49:58;;;;;;;12.38;3.75;;;;;;;15.23;62.07;95772.50;5110812;28;20088;-31
2022/04/09 09:52:36;;;;;;;15.65;4.55;;;;;;;15.19;62.59;95810.19;5092706;28;20460;-31
2022/04/09 09:55:19;;;;;;;15.95;4.40;;;;;;;15.23;62.39;95790.88;5092663;28;20039;-31
2022/04/09 09:57:48;;;;;;;18.42;4.68;;;;;;;15.05;62.76;95851.91;5090601;28;20467;-31
2022/04/09 10:00:14;;;;;;;12.00;3.33;;;;;;;14.98;63.04;95814.03;5092235;28;20536;-31
2022/04/09 10:02:40;;;;;;;12.90;4.28;;;;;;;15.21;62.82;95807.72;5093518;28;20024;-32
2022/04/09 10:05:07;;;;;;;11.90;3.70;;;;;;;15.20;62.40;95821.88;5112820;28;20032;-31
2022/04/09 10:07:34;;;;;;;13.02;3.50;;;;;;;15.28;61.95;95804.63;5112725;28;20034;-31
2022/04/09 10:10:06;;;;;;;16.77;3.65;;;;;;;15.19;62.50;95807.47;5112697;28;20051;-31
2022/04/09 10:12:41;;;;;;;15.65;3.47;;;;;;;15.33;61.54;95834.00;5111661;28;20432;-31
2022/04/09 10:15:08;;;;;;;8.90;2.58;;;;;;;15.34;61.40;95802.72;5112651;28;20078;-31
2022/04/09 10:17:34;;;;;;;15.05;3.17;;;;;;;15.51;60.93;95815.91;5112730;28;20456;-32
2022/04/09 10:20:03;;;;;;;14.20;3.33;;;;;;;15.42;61.41;95838.63;5112932;28;20044;-31
2022/04/09 10:22:32;;;;;;;12.60;3.30;;;;;;;15.43;61.10;95834.69;5120197;27;20030;-31
2022/04/09 10:24:59;;;;;;;12.85;3.05;;;;;;;15.31;61.80;95824.78;5132652;27;20019;-31
2022/04/09 10:27:39;;;;;;;12.18;3.38;;;;;;;15.33;61.59;95834.00;5120845;27;20072;-31
2022/04/09 10:30:25;;;;;;;17.23;3.40;;;;;;;15.22;61.80;95822.88;5112194;28;20023;-31
2022/04/09 10:32:54;;;;;;;10.65;4.07;;;;;;;15.14;62.02;95829.97;5111258;28;20096;-31
2022/04/09 10:35:27;;;;;;;17.77;5.03;;;;;;;14.94;62.82;95841.53;5111671;28;20466;-31
2022/04/09 10:38:14;;;;;;;13.48;3.47;;;;;;;14.95;62.84;95810.28;5093557;28;20101;-31
2022/04/09 10:40:42;;;;;;;13.15;3.50;;;;;;;15.17;62.09;95809.16;5110631;28;20031;-30
2022/04/09 10:43:09;;;;;;;14.02;2.90;;;;;;;15.16;62.31;95824.78;5112127;28;20031;-31
2022/04/09 10:46:02;;;;;;;9.55;2.80;;;;;;;15.26;61.98;95804.34;5111922;28;20106;-30
2022/04/09 11:05:35;;;;;;;12.00;2.47;;;;;;;15.48;60.38;95792.25;4146641;28;22353;-33
2022/04/09 11:11:25;;;;;;;8.73;3.15;;;;;;;15.50;60.12;95798.00;5133897;28;20041;-32
2022/04/09 11:13:53;;;;;;;12.30;3.03;;;;;;;15.49;60.05;95821.09;5134117;28;20076;-31
2022/04/09 11:16:18;;;;;;;17.02;3.10;;;;;;;15.51;59.59;95802.25;5133783;28;20080;-30
2022/04/09 11:18:46;;;;;;;12.50;2.60;;;;;;;15.62;59.03;95799.72;5133534;28;20019;-31
2022/04/09 11:21:12;;;;;;;16.08;3.30;;;;;;;15.42;59.35;95803.13;5132813;27;20107;-31
2022/04/09 11:23:38;;;;;;;16.30;3.42;;;;;;;15.43;59.23;95802.66;5133892;27;20106;-32
2022/04/09 11:26:03;;;;;;;16.75;3.40;;;;;;;15.37;59.35;95792.84;5133884;27;20068;-31
2022/04/09 11:28:38;;;;;;;15.52;3.53;;;;;;;15.59;58.77;95806.13;5134005;27;20031;-31
2022/04/09 11:31:06;;;;;;;14.57;3.53;;;;;;;15.46;59.04;95815.34;5133614;27;20425;-31
2022/04/09 11:33:32;;;;;;;13.30;2.72;;;;;;;15.44;58.69;95798.69;5115351;28;20023;-31
2022/04/09 11:36:00;;;;;;;13.18;2.75;;;;;;;15.40;59.08;95792.66;5133584;27;20432;-31
2022/04/09 11:38:29;;;;;;;11.18;3.13;;;;;;;15.56;58.73;95790.69;5133234;27;20486;-31
2022/04/09 11:40:55;;;;;;;12.35;2.90;;;;;;;15.60;58.31;95780.28;5114328;28;20371;-31
2022/04/09 11:43:22;;;;;;;10.82;2.65;;;;;;;15.68;58.17;95767.75;5133792;27;20019;-31
2022/04/09 11:45:49;;;;;;;15.50;3.33;;;;;;;15.63;58.26;95773.88;5115372;28;20131;-31